SWR8X EDDB-LSZH
Flight info
| Callsign | SWR8X |
|---|---|
| Flight time | 0h 56m |
| Altitude | 34000 |
| Route | KISUC1Q KISUC Z117 ORTAG DCT BAMKI DCT AMOSA N869 TEDGO/N0452F350 T724 RILAX |
| Aircraft | A321/M-SDE3FGHIRWY/LB1 |
Departure
| Time | 2026-04-30 21:56 |
|---|---|
| Airport | Berlin Brandenburg Airport (EDDB) |
Arrival
| Time | 2026-04-30 22:53 |
|---|---|
| Airport | Zürich Airport (LSZH) |
| Time | Latitude | Longitude | Altitude | Speed | Heading |
|---|---|---|---|---|---|
| 2026-04-30 21:39 | 52.36209 | 13.50700 | 155 ft | 0 kts | 69° |
| 2026-04-30 21:45 | 52.36203 | 13.50674 | 154 ft | 4 kts | 69° |
| 2026-04-30 21:45 | 52.36194 | 13.50635 | 154 ft | 2 kts | 69° |
| 2026-04-30 21:45 | 52.36184 | 13.50602 | 154 ft | 4 kts | 45° |
| 2026-04-30 21:46 | 52.36163 | 13.50583 | 154 ft | 4 kts | 358° |
| 2026-04-30 21:46 | 52.36151 | 13.50586 | 154 ft | 0 kts | 339° |
| 2026-04-30 21:48 | 52.36155 | 13.50580 | 154 ft | 1 kts | 315° |
| 2026-04-30 21:48 | 52.36153 | 13.50560 | 154 ft | 3 kts | 258° |
| 2026-04-30 21:48 | 52.36130 | 13.50531 | 154 ft | 5 kts | 191° |
| 2026-04-30 21:49 | 52.36071 | 13.50555 | 154 ft | 11 kts | 159° |
| 2026-04-30 21:49 | 52.36006 | 13.50596 | 154 ft | 10 kts | 159° |
| 2026-04-30 21:49 | 52.35934 | 13.50641 | 154 ft | 14 kts | 161° |
| 2026-04-30 21:49 | 52.35843 | 13.50633 | 154 ft | 13 kts | 181° |
| 2026-04-30 21:50 | 52.35769 | 13.50595 | 154 ft | 11 kts | 234° |
| 2026-04-30 21:50 | 52.35732 | 13.50453 | 154 ft | 15 kts | 248° |
| 2026-04-30 21:50 | 52.35694 | 13.50293 | 154 ft | 17 kts | 249° |
| 2026-04-30 21:50 | 52.35650 | 13.50106 | 154 ft | 18 kts | 248° |
| 2026-04-30 21:51 | 52.35607 | 13.49923 | 154 ft | 17 kts | 249° |
| 2026-04-30 21:51 | 52.35566 | 13.49750 | 154 ft | 16 kts | 249° |
| 2026-04-30 21:51 | 52.35522 | 13.49566 | 154 ft | 21 kts | 249° |
| 2026-04-30 21:51 | 52.35466 | 13.49328 | 154 ft | 22 kts | 248° |
| 2026-04-30 21:52 | 52.35411 | 13.49098 | 154 ft | 21 kts | 249° |
| 2026-04-30 21:52 | 52.35355 | 13.48864 | 154 ft | 23 kts | 249° |
| 2026-04-30 21:52 | 52.35300 | 13.48629 | 154 ft | 22 kts | 249° |
| 2026-04-30 21:52 | 52.35245 | 13.48399 | 154 ft | 21 kts | 248° |
| 2026-04-30 21:53 | 52.35189 | 13.48165 | 154 ft | 25 kts | 249° |
| 2026-04-30 21:53 | 52.35124 | 13.47889 | 154 ft | 26 kts | 248° |
| 2026-04-30 21:53 | 52.35059 | 13.47618 | 154 ft | 26 kts | 249° |
| 2026-04-30 21:53 | 52.34996 | 13.47351 | 154 ft | 25 kts | 249° |
| 2026-04-30 21:54 | 52.34934 | 13.47092 | 154 ft | 24 kts | 248° |
| 2026-04-30 21:54 | 52.34875 | 13.46842 | 154 ft | 23 kts | 249° |
| 2026-04-30 21:54 | 52.34804 | 13.46713 | 154 ft | 14 kts | 174° |
| 2026-04-30 21:54 | 52.34718 | 13.46767 | 154 ft | 13 kts | 159° |
| 2026-04-30 21:55 | 52.34639 | 13.46817 | 154 ft | 12 kts | 159° |
| 2026-04-30 21:55 | 52.34569 | 13.46891 | 154 ft | 14 kts | 111° |
| 2026-04-30 21:55 | 52.34643 | 13.47272 | 154 ft | 69 kts | 69° |
| 2026-04-30 21:55 | 52.34895 | 13.48331 | 155 ft | 128 kts | 69° |
| 2026-04-30 21:56 | 52.35276 | 13.49935 | 158 ft | 172 kts | 69° |
| 2026-04-30 21:56 | 52.35707 | 13.51760 | 741 ft | 168 kts | 69° |
| 2026-04-30 21:56 | 52.35676 | 13.53674 | 1210 ft | 182 kts | 113° |
| 2026-04-30 21:56 | 52.34772 | 13.55292 | 1536 ft | 199 kts | 140° |
| 2026-04-30 21:57 | 52.33466 | 13.56079 | 2016 ft | 209 kts | 181° |
| 2026-04-30 21:57 | 52.32078 | 13.55321 | 2406 ft | 220 kts | 214° |
| 2026-04-30 21:57 | 52.30791 | 13.53746 | 2570 ft | 244 kts | 219° |
| 2026-04-30 21:57 | 52.29406 | 13.51935 | 3003 ft | 262 kts | 220° |
| 2026-04-30 21:58 | 52.27978 | 13.50043 | 3842 ft | 265 kts | 221° |
| 2026-04-30 21:58 | 52.26803 | 13.47725 | 4637 ft | 268 kts | 244° |
| 2026-04-30 21:58 | 52.26296 | 13.44798 | 5392 ft | 271 kts | 268° |
| 2026-04-30 21:58 | 52.26290 | 13.41733 | 6091 ft | 277 kts | 272° |
| 2026-04-30 21:59 | 52.26300 | 13.38554 | 6809 ft | 283 kts | 272° |
| 2026-04-30 21:59 | 52.26305 | 13.35302 | 7483 ft | 289 kts | 272° |
| 2026-04-30 21:59 | 52.26305 | 13.31988 | 8179 ft | 294 kts | 272° |
| 2026-04-30 22:00 | 52.26284 | 13.25186 | 9552 ft | 306 kts | 269° |
| 2026-04-30 22:00 | 52.24945 | 13.18472 | 10793 ft | 324 kts | 239° |
| 2026-04-30 22:00 | 52.23502 | 13.15512 | 10955 ft | 345 kts | 221° |
| 2026-04-30 22:01 | 52.21657 | 13.12814 | 11076 ft | 367 kts | 220° |
| 2026-04-30 22:01 | 52.19683 | 13.09975 | 11213 ft | 388 kts | 220° |
| 2026-04-30 22:01 | 52.17600 | 13.07001 | 11325 ft | 408 kts | 220° |
| 2026-04-30 22:01 | 52.15429 | 13.03907 | 11662 ft | 419 kts | 220° |
| 2026-04-30 22:02 | 52.13218 | 13.00753 | 12205 ft | 423 kts | 220° |
| 2026-04-30 22:02 | 52.11006 | 12.97555 | 12770 ft | 427 kts | 221° |
| 2026-04-30 22:02 | 52.08815 | 12.94343 | 13317 ft | 431 kts | 221° |
| 2026-04-30 22:02 | 52.06558 | 12.91011 | 13882 ft | 434 kts | 221° |
| 2026-04-30 22:03 | 52.04342 | 12.87732 | 14370 ft | 439 kts | 221° |
| 2026-04-30 22:03 | 52.02066 | 12.84379 | 14821 ft | 443 kts | 221° |
| 2026-04-30 22:03 | 51.99767 | 12.81006 | 15268 ft | 447 kts | 221° |
| 2026-04-30 22:03 | 51.97448 | 12.77621 | 15786 ft | 449 kts | 221° |
| 2026-04-30 22:04 | 51.95111 | 12.74225 | 16257 ft | 452 kts | 221° |
| 2026-04-30 22:04 | 51.92750 | 12.70811 | 16709 ft | 456 kts | 221° |
| 2026-04-30 22:04 | 51.87978 | 12.63923 | 17612 ft | 463 kts | 221° |
| 2026-04-30 22:05 | 51.85557 | 12.60426 | 18052 ft | 467 kts | 221° |
| 2026-04-30 22:05 | 51.83160 | 12.56962 | 18466 ft | 471 kts | 221° |
| 2026-04-30 22:05 | 51.80703 | 12.53411 | 18872 ft | 475 kts | 221° |
| 2026-04-30 22:05 | 51.78232 | 12.49848 | 19261 ft | 478 kts | 221° |
| 2026-04-30 22:06 | 51.75741 | 12.46265 | 19710 ft | 480 kts | 221° |
| 2026-04-30 22:06 | 51.70726 | 12.39066 | 20521 ft | 484 kts | 221° |
| 2026-04-30 22:06 | 51.68196 | 12.35446 | 20923 ft | 487 kts | 221° |
| 2026-04-30 22:07 | 51.65657 | 12.31819 | 21317 ft | 489 kts | 221° |
| 2026-04-30 22:07 | 51.63104 | 12.28181 | 21724 ft | 491 kts | 221° |
| 2026-04-30 22:07 | 51.60563 | 12.24563 | 22114 ft | 493 kts | 221° |
| 2026-04-30 22:07 | 51.57986 | 12.20896 | 22500 ft | 496 kts | 221° |
| 2026-04-30 22:08 | 51.55389 | 12.17208 | 22884 ft | 498 kts | 221° |
| 2026-04-30 22:08 | 51.52786 | 12.13523 | 23254 ft | 500 kts | 221° |
| 2026-04-30 22:08 | 51.50168 | 12.09822 | 23619 ft | 502 kts | 221° |
| 2026-04-30 22:08 | 51.47537 | 12.06112 | 23979 ft | 504 kts | 221° |
| 2026-04-30 22:09 | 51.44902 | 12.02396 | 24308 ft | 506 kts | 221° |
| 2026-04-30 22:09 | 51.42253 | 11.98660 | 24634 ft | 508 kts | 221° |
| 2026-04-30 22:09 | 51.39595 | 11.94912 | 24954 ft | 509 kts | 221° |
| 2026-04-30 22:09 | 51.36930 | 11.91166 | 25259 ft | 511 kts | 221° |
| 2026-04-30 22:10 | 51.34254 | 11.87416 | 25548 ft | 513 kts | 221° |
| 2026-04-30 22:10 | 51.31568 | 11.83662 | 25936 ft | 512 kts | 221° |
| 2026-04-30 22:10 | 51.28891 | 11.79930 | 26344 ft | 510 kts | 221° |
| 2026-04-30 22:10 | 51.26221 | 11.76207 | 26748 ft | 509 kts | 221° |
| 2026-04-30 22:11 | 51.20924 | 11.68840 | 27550 ft | 507 kts | 221° |
| 2026-04-30 22:11 | 51.18258 | 11.65145 | 27935 ft | 507 kts | 221° |
| 2026-04-30 22:11 | 51.15596 | 11.61468 | 28320 ft | 506 kts | 221° |
| 2026-04-30 22:12 | 51.12931 | 11.57800 | 28704 ft | 506 kts | 221° |
| 2026-04-30 22:12 | 51.10266 | 11.54142 | 29095 ft | 505 kts | 221° |
| 2026-04-30 22:12 | 51.07599 | 11.50493 | 29478 ft | 504 kts | 221° |
| 2026-04-30 22:12 | 51.04940 | 11.46863 | 29873 ft | 504 kts | 221° |
| 2026-04-30 22:13 | 51.02282 | 11.43236 | 30254 ft | 503 kts | 221° |
| 2026-04-30 22:13 | 50.99633 | 11.39623 | 30593 ft | 503 kts | 221° |
| 2026-04-30 22:13 | 50.96980 | 11.36013 | 30944 ft | 500 kts | 221° |
| 2026-04-30 22:13 | 50.94344 | 11.32432 | 31330 ft | 498 kts | 221° |
| 2026-04-30 22:14 | 50.91714 | 11.28869 | 31711 ft | 496 kts | 221° |
| 2026-04-30 22:14 | 50.89095 | 11.25322 | 32072 ft | 495 kts | 221° |
| 2026-04-30 22:14 | 50.86479 | 11.21780 | 32425 ft | 494 kts | 221° |
| 2026-04-30 22:14 | 50.83874 | 11.18260 | 32778 ft | 492 kts | 221° |
| 2026-04-30 22:15 | 50.81272 | 11.14752 | 33143 ft | 491 kts | 221° |
| 2026-04-30 22:15 | 50.78672 | 11.11251 | 33488 ft | 490 kts | 221° |
| 2026-04-30 22:15 | 50.76045 | 11.07815 | 33824 ft | 490 kts | 216° |
| 2026-04-30 22:15 | 50.73174 | 11.04911 | 34160 ft | 489 kts | 207° |
| 2026-04-30 22:16 | 50.70114 | 11.02734 | 34404 ft | 488 kts | 198° |
| 2026-04-30 22:17 | 50.56821 | 10.99407 | 34449 ft | 484 kts | 184° |
| 2026-04-30 22:17 | 50.46771 | 10.97607 | 34447 ft | 484 kts | 185° |
| 2026-04-30 22:18 | 50.36740 | 10.95832 | 34445 ft | 484 kts | 184° |
| 2026-04-30 22:19 | 50.26703 | 10.94106 | 34431 ft | 484 kts | 184° |
| 2026-04-30 22:20 | 50.16648 | 10.92362 | 34424 ft | 485 kts | 184° |
| 2026-04-30 22:20 | 50.06801 | 10.89289 | 34424 ft | 488 kts | 204° |
| 2026-04-30 22:21 | 50.00625 | 10.84843 | 34419 ft | 489 kts | 204° |
| 2026-04-30 22:21 | 49.94449 | 10.80361 | 34417 ft | 490 kts | 204° |
| 2026-04-30 22:22 | 49.88266 | 10.75902 | 34415 ft | 490 kts | 204° |
| 2026-04-30 22:22 | 49.82066 | 10.71459 | 34408 ft | 491 kts | 204° |
| 2026-04-30 22:23 | 49.75859 | 10.67021 | 34410 ft | 491 kts | 204° |
| 2026-04-30 22:23 | 49.69648 | 10.62596 | 34413 ft | 492 kts | 204° |
| 2026-04-30 22:24 | 49.63424 | 10.58161 | 34395 ft | 493 kts | 204° |
| 2026-04-30 22:24 | 49.57230 | 10.53770 | 34387 ft | 493 kts | 203° |
| 2026-04-30 22:25 | 49.50974 | 10.49421 | 34383 ft | 494 kts | 203° |
| 2026-04-30 22:25 | 49.44701 | 10.45107 | 34387 ft | 494 kts | 203° |
| 2026-04-30 22:26 | 49.35276 | 10.38638 | 34397 ft | 494 kts | 203° |
| 2026-04-30 22:27 | 49.28990 | 10.34324 | 34401 ft | 495 kts | 202° |
| 2026-04-30 22:27 | 49.19583 | 10.27773 | 34397 ft | 495 kts | 204° |
| 2026-04-30 22:28 | 49.13865 | 10.22035 | 34380 ft | 496 kts | 222° |
| 2026-04-30 22:28 | 49.11427 | 10.18306 | 34358 ft | 495 kts | 230° |
| 2026-04-30 22:29 | 49.02770 | 10.02016 | 34380 ft | 494 kts | 232° |
| 2026-04-30 22:31 | 48.87629 | 9.73628 | 34367 ft | 494 kts | 232° |
| 2026-04-30 22:32 | 48.77495 | 9.54772 | 34350 ft | 493 kts | 231° |
| 2026-04-30 22:33 | 48.66626 | 9.34729 | 34354 ft | 492 kts | 231° |
| 2026-04-30 22:34 | 48.59637 | 9.23443 | 34340 ft | 491 kts | 216° |
| 2026-04-30 22:35 | 48.54143 | 9.17315 | 34340 ft | 491 kts | 216° |
| 2026-04-30 22:36 | 48.43211 | 9.05110 | 33434 ft | 487 kts | 216° |
| 2026-04-30 22:36 | 48.40482 | 9.02077 | 32698 ft | 487 kts | 215° |
| 2026-04-30 22:37 | 48.32282 | 8.92999 | 30420 ft | 490 kts | 214° |
| 2026-04-30 22:37 | 48.29533 | 8.89957 | 29507 ft | 491 kts | 215° |
| 2026-04-30 22:37 | 48.24031 | 8.83836 | 27682 ft | 493 kts | 215° |
| 2026-04-30 22:38 | 48.18516 | 8.77686 | 25848 ft | 495 kts | 215° |
| 2026-04-30 22:38 | 48.12989 | 8.71591 | 24008 ft | 497 kts | 215° |
| 2026-04-30 22:39 | 48.10205 | 8.68565 | 23285 ft | 492 kts | 215° |
| 2026-04-30 22:39 | 48.01090 | 8.62999 | 21252 ft | 467 kts | 179° |
| 2026-04-30 22:40 | 47.91825 | 8.65599 | 19286 ft | 445 kts | 168° |
| 2026-04-30 22:41 | 47.82660 | 8.67076 | 17140 ft | 435 kts | 172° |
| 2026-04-30 22:41 | 47.76734 | 8.67976 | 15565 ft | 431 kts | 171° |
| 2026-04-30 22:42 | 47.65167 | 8.70302 | 13261 ft | 397 kts | 170° |
| 2026-04-30 22:43 | 47.60030 | 8.71383 | 12964 ft | 351 kts | 170° |
| 2026-04-30 22:43 | 47.55449 | 8.72327 | 12633 ft | 316 kts | 170° |
| 2026-04-30 22:44 | 47.51233 | 8.73184 | 12067 ft | 300 kts | 170° |
| 2026-04-30 22:45 | 47.43139 | 8.74880 | 10718 ft | 275 kts | 169° |
| 2026-04-30 22:45 | 47.39622 | 8.75627 | 10174 ft | 246 kts | 170° |
| 2026-04-30 22:46 | 47.36268 | 8.76380 | 9266 ft | 242 kts | 169° |
| 2026-04-30 22:47 | 47.29751 | 8.77274 | 7490 ft | 234 kts | 202° |
| 2026-04-30 22:47 | 47.27955 | 8.73633 | 6392 ft | 230 kts | 264° |
| 2026-04-30 22:48 | 47.28474 | 8.69077 | 5622 ft | 224 kts | 296° |
| 2026-04-30 22:49 | 47.31524 | 8.64599 | 4659 ft | 205 kts | 337° |
| 2026-04-30 22:49 | 47.35201 | 8.62087 | 3792 ft | 178 kts | 338° |
| 2026-04-30 22:50 | 47.39312 | 8.59257 | 2793 ft | 148 kts | 342° |
| 2026-04-30 22:51 | 47.41154 | 8.58005 | 2361 ft | 145 kts | 338° |
| 2026-04-30 22:51 | 47.42948 | 8.56772 | 1886 ft | 139 kts | 334° |
| 2026-04-30 22:52 | 47.43824 | 8.56173 | 1700 ft | 139 kts | 333° |
| 2026-04-30 22:52 | 47.45547 | 8.54987 | 1404 ft | 126 kts | 335° |
| 2026-04-30 22:53 | 47.46312 | 8.54463 | 1382 ft | 30 kts | 335° |
| 2026-04-30 22:53 | 47.46476 | 8.54574 | 1384 ft | 12 kts | 80° |
| 2026-04-30 22:53 | 47.46436 | 8.54651 | 1385 ft | 11 kts | 155° |
| 2026-04-30 22:54 | 47.46236 | 8.54793 | 1386 ft | 17 kts | 157° |
| 2026-04-30 22:55 | 47.45839 | 8.55065 | 1398 ft | 23 kts | 155° |
| 2026-04-30 22:55 | 47.45550 | 8.55266 | 1402 ft | 21 kts | 154° |
| 2026-04-30 22:56 | 47.45255 | 8.55469 | 1404 ft | 23 kts | 155° |
| 2026-04-30 22:56 | 47.44953 | 8.55797 | 1407 ft | 17 kts | 96° |
| 2026-04-30 22:57 | 47.44810 | 8.56024 | 1401 ft | 17 kts | 154° |
| 2026-04-30 22:57 | 47.44596 | 8.56171 | 1402 ft | 19 kts | 155° |
| 2026-04-30 22:58 | 47.44470 | 8.56215 | 1400 ft | 8 kts | 231° |
| 2026-04-30 22:59 | 47.44449 | 8.56153 | 1404 ft | 0 kts | 245° |